sensor_id;sensor_type;location;lat;lon;timestamp;P1;durP1;ratioP1;P2;durP2;ratioP2
44991;SDS011;56865;51.618;7.406;2022-07-29T01:09:46;2.17;;;1.10;;
44991;SDS011;56865;51.618;7.406;2022-07-29T03:27:33;1.90;;;1.10;;
44991;SDS011;56865;51.618;7.406;2022-07-29T03:40:05;2.83;;;1.40;;
44991;SDS011;56865;51.618;7.406;2022-07-29T03:42:40;3.17;;;1.33;;
44991;SDS011;56865;51.618;7.406;2022-07-29T03:45:13;3.38;;;1.30;;
44991;SDS011;56865;51.618;7.406;2022-07-29T04:02:49;2.20;;;1.50;;
44991;SDS011;56865;51.618;7.406;2022-07-29T04:05:19;3.90;;;1.50;;
44991;SDS011;56865;51.618;7.406;2022-07-29T04:07:50;2.53;;;1.40;;
44991;SDS011;56865;51.618;7.406;2022-07-29T04:10:20;4.43;;;1.20;;
44991;SDS011;56865;51.618;7.406;2022-07-29T04:12:57;2.60;;;1.20;;
44991;SDS011;56865;51.618;7.406;2022-07-29T04:15:28;3.05;;;1.20;;
44991;SDS011;56865;51.618;7.406;2022-07-29T04:18:01;2.47;;;1.40;;
44991;SDS011;56865;51.618;7.406;2022-07-29T04:20:32;3.67;;;1.27;;
44991;SDS011;56865;51.618;7.406;2022-07-29T04:23:02;3.53;;;1.17;;
44991;SDS011;56865;51.618;7.406;2022-07-29T04:25:32;3.72;;;1.35;;
44991;SDS011;56865;51.618;7.406;2022-07-29T06:01:05;2.80;;;1.40;;
44991;SDS011;56865;51.618;7.406;2022-07-29T06:03:36;3.37;;;1.50;;
44991;SDS011;56865;51.618;7.406;2022-07-29T06:06:07;3.22;;;1.60;;
44991;SDS011;56865;51.618;7.406;2022-07-29T06:08:38;4.63;;;1.67;;
44991;SDS011;56865;51.618;7.406;2022-07-29T06:11:09;3.67;;;1.70;;
44991;SDS011;56865;51.618;7.406;2022-07-29T06:13:39;2.60;;;1.58;;
44991;SDS011;56865;51.618;7.406;2022-07-29T06:16:12;3.83;;;1.60;;
44991;SDS011;56865;51.618;7.406;2022-07-29T06:18:55;2.70;;;1.50;;
44991;SDS011;56865;51.618;7.406;2022-07-29T06:21:26;4.30;;;1.60;;
44991;SDS011;56865;51.618;7.406;2022-07-29T06:31:32;2.93;;;1.53;;
44991;SDS011;56865;51.618;7.406;2022-07-29T06:34:02;4.13;;;1.70;;
44991;SDS011;56865;51.618;7.406;2022-07-29T06:36:34;4.63;;;1.73;;
44991;SDS011;56865;51.618;7.406;2022-07-29T06:39:06;2.60;;;1.60;;
44991;SDS011;56865;51.618;7.406;2022-07-29T06:41:37;2.78;;;1.65;;
44991;SDS011;56865;51.618;7.406;2022-07-29T06:44:08;2.33;;;1.60;;
44991;SDS011;56865;51.618;7.406;2022-07-29T06:46:41;3.00;;;1.80;;
44991;SDS011;56865;51.618;7.406;2022-07-29T06:49:14;2.38;;;1.65;;
44991;SDS011;56865;51.618;7.406;2022-07-29T06:51:44;2.35;;;2.00;;
44991;SDS011;56865;51.618;7.406;2022-07-29T06:59:15;2.78;;;1.70;;
44991;SDS011;56865;51.618;7.406;2022-07-29T07:04:28;3.47;;;1.90;;
44991;SDS011;56865;51.618;7.406;2022-07-29T07:09:29;4.38;;;2.10;;
44991;SDS011;56865;51.618;7.406;2022-07-29T07:14:36;4.90;;;1.73;;
44991;SDS011;56865;51.618;7.406;2022-07-29T07:17:07;2.15;;;1.70;;
44991;SDS011;56865;51.618;7.406;2022-07-29T07:22:11;3.10;;;1.50;;
44991;SDS011;56865;51.618;7.406;2022-07-29T07:24:41;4.78;;;1.77;;
44991;SDS011;56865;51.618;7.406;2022-07-29T07:27:12;2.67;;;1.88;;
44991;SDS011;56865;51.618;7.406;2022-07-29T07:29:42;3.30;;;1.75;;
44991;SDS011;56865;51.618;7.406;2022-07-29T07:32:13;2.63;;;1.73;;
44991;SDS011;56865;51.618;7.406;2022-07-29T07:34:43;3.20;;;1.60;;
44991;SDS011;56865;51.618;7.406;2022-07-29T07:37:17;3.45;;;1.70;;
44991;SDS011;56865;51.618;7.406;2022-07-29T07:39:48;3.38;;;1.75;;
44991;SDS011;56865;51.618;7.406;2022-07-29T07:42:18;2.97;;;1.65;;
44991;SDS011;56865;51.618;7.406;2022-07-29T07:44:49;5.40;;;1.43;;
44991;SDS011;56865;51.618;7.406;2022-07-29T07:47:38;2.53;;;1.50;;
44991;SDS011;56865;51.618;7.406;2022-07-29T07:50:10;2.55;;;1.48;;
44991;SDS011;56865;51.618;7.406;2022-07-29T07:52:51;4.18;;;1.40;;
44991;SDS011;56865;51.618;7.406;2022-07-29T07:55:24;4.50;;;1.80;;
44991;SDS011;56865;51.618;7.406;2022-07-29T07:58:14;3.15;;;1.70;;
44991;SDS011;56865;51.618;7.406;2022-07-29T08:00:45;3.25;;;1.70;;
44991;SDS011;56865;51.618;7.406;2022-07-29T08:03:15;2.80;;;1.60;;
44991;SDS011;56865;51.618;7.406;2022-07-29T08:05:46;3.20;;;1.60;;
44991;SDS011;56865;51.618;7.406;2022-07-29T08:08:20;2.20;;;1.40;;
44991;SDS011;56865;51.618;7.406;2022-07-29T08:10:50;3.42;;;1.55;;
44991;SDS011;56865;51.618;7.406;2022-07-29T08:13:30;3.28;;;1.55;;
44991;SDS011;56865;51.618;7.406;2022-07-29T08:16:01;2.40;;;1.48;;
44991;SDS011;56865;51.618;7.406;2022-07-29T08:18:38;2.20;;;1.50;;
44991;SDS011;56865;51.618;7.406;2022-07-29T08:21:09;3.50;;;1.65;;
44991;SDS011;56865;51.618;7.406;2022-07-29T08:23:43;3.00;;;1.50;;
44991;SDS011;56865;51.618;7.406;2022-07-29T08:26:27;5.63;;;1.80;;
44991;SDS011;56865;51.618;7.406;2022-07-29T08:28:57;3.78;;;1.83;;
44991;SDS011;56865;51.618;7.406;2022-07-29T08:36:28;4.03;;;2.10;;
44991;SDS011;56865;51.618;7.406;2022-07-29T08:39:02;3.10;;;1.92;;
44991;SDS011;56865;51.618;7.406;2022-07-29T08:41:32;4.00;;;1.80;;
44991;SDS011;56865;51.618;7.406;2022-07-29T08:44:03;3.08;;;2.00;;
44991;SDS011;56865;51.618;7.406;2022-07-29T08:46:33;3.58;;;2.03;;
44991;SDS011;56865;51.618;7.406;2022-07-29T08:49:10;3.45;;;2.10;;
44991;SDS011;56865;51.618;7.406;2022-07-29T08:51:44;5.85;;;2.10;;
44991;SDS011;56865;51.618;7.406;2022-07-29T08:54:18;4.20;;;1.95;;
44991;SDS011;56865;51.618;7.406;2022-07-29T08:59:20;4.68;;;2.20;;
44991;SDS011;56865;51.618;7.406;2022-07-29T09:01:53;4.30;;;1.93;;
44991;SDS011;56865;51.618;7.406;2022-07-29T09:04:27;4.20;;;2.10;;
44991;SDS011;56865;51.618;7.406;2022-07-29T09:07:00;6.40;;;2.13;;
44991;SDS011;56865;51.618;7.406;2022-07-29T10:27:42;4.65;;;2.38;;
44991;SDS011;56865;51.618;7.406;2022-07-29T10:37:52;3.58;;;2.35;;
